sensor_id;sensor_type;location;lat;lon;timestamp;P1;P2;P0
30342;PMS5003;17145;49.902;8.680;2023-11-19T00:00:49;7;7;
30342;PMS5003;17145;49.902;8.680;2023-11-19T00:03:17;7;7;
30342;PMS5003;17145;49.902;8.680;2023-11-19T00:05:44;12;10;
30342;PMS5003;17145;49.902;8.680;2023-11-19T00:08:11;7;7;
30342;PMS5003;17145;49.902;8.680;2023-11-19T00:10:39;8;8;
30342;PMS5003;17145;49.902;8.680;2023-11-19T00:13:06;9;8;
30342;PMS5003;17145;49.902;8.680;2023-11-19T00:15:34;12;9;
30342;PMS5003;17145;49.902;8.680;2023-11-19T00:18:01;9;9;
30342;PMS5003;17145;49.902;8.680;2023-11-19T00:20:29;7;7;
30342;PMS5003;17145;49.902;8.680;2023-11-19T00:22:56;13;9;
30342;PMS5003;17145;49.902;8.680;2023-11-19T00:25:24;8;8;
30342;PMS5003;17145;49.902;8.680;2023-11-19T00:27:51;7;6;
30342;PMS5003;17145;49.902;8.680;2023-11-19T00:30:19;8;8;
30342;PMS5003;17145;49.902;8.680;2023-11-19T00:32:46;7;7;
30342;PMS5003;17145;49.902;8.680;2023-11-19T00:35:14;9;9;
30342;PMS5003;17145;49.902;8.680;2023-11-19T00:37:41;9;9;
30342;PMS5003;17145;49.902;8.680;2023-11-19T00:40:09;12;8;
30342;PMS5003;17145;49.902;8.680;2023-11-19T00:42:37;8;7;
30342;PMS5003;17145;49.902;8.680;2023-11-19T00:45:05;8;8;
30342;PMS5003;17145;49.902;8.680;2023-11-19T00:47:33;8;8;
30342;PMS5003;17145;49.902;8.680;2023-11-19T00:50:01;7;7;
30342;PMS5003;17145;49.902;8.680;2023-11-19T00:52:29;9;9;
30342;PMS5003;17145;49.902;8.680;2023-11-19T00:54:57;10;9;
30342;PMS5003;17145;49.902;8.680;2023-11-19T00:57:24;9;9;
30342;PMS5003;17145;49.902;8.680;2023-11-19T00:59:51;8;8;
30342;PMS5003;17145;49.902;8.680;2023-11-19T01:02:19;8;8;
30342;PMS5003;17145;49.902;8.680;2023-11-19T01:04:46;7;7;
30342;PMS5003;17145;49.902;8.680;2023-11-19T01:07:14;9;8;
30342;PMS5003;17145;49.902;8.680;2023-11-19T01:09:42;9;7;
30342;PMS5003;17145;49.902;8.680;2023-11-19T01:12:09;8;7;
30342;PMS5003;17145;49.902;8.680;2023-11-19T01:14:37;9;8;
30342;PMS5003;17145;49.902;8.680;2023-11-19T01:17:05;8;8;
30342;PMS5003;17145;49.902;8.680;2023-11-19T01:19:32;7;7;
30342;PMS5003;17145;49.902;8.680;2023-11-19T01:21:59;9;9;
30342;PMS5003;17145;49.902;8.680;2023-11-19T01:24:27;8;8;
30342;PMS5003;17145;49.902;8.680;2023-11-19T01:26:54;8;8;
30342;PMS5003;17145;49.902;8.680;2023-11-19T01:29:22;9;8;
30342;PMS5003;17145;49.902;8.680;2023-11-19T01:31:49;10;9;
30342;PMS5003;17145;49.902;8.680;2023-11-19T01:34:16;13;10;
30342;PMS5003;17145;49.902;8.680;2023-11-19T01:36:44;10;9;
30342;PMS5003;17145;49.902;8.680;2023-11-19T01:39:13;9;8;
30342;PMS5003;17145;49.902;8.680;2023-11-19T01:41:40;12;9;
30342;PMS5003;17145;49.902;8.680;2023-11-19T01:44:08;9;8;
30342;PMS5003;17145;49.902;8.680;2023-11-19T01:46:35;12;12;
30342;PMS5003;17145;49.902;8.680;2023-11-19T01:49:03;13;10;
30342;PMS5003;17145;49.902;8.680;2023-11-19T01:51:32;12;12;
30342;PMS5003;17145;49.902;8.680;2023-11-19T01:54:00;10;10;
30342;PMS5003;17145;49.902;8.680;2023-11-19T01:56:28;9;9;
30342;PMS5003;17145;49.902;8.680;2023-11-19T01:58:57;9;8;
30342;PMS5003;17145;49.902;8.680;2023-11-19T02:01:25;10;9;
30342;PMS5003;17145;49.902;8.680;2023-11-19T02:03:52;9;9;
30342;PMS5003;17145;49.902;8.680;2023-11-19T02:06:20;9;8;
30342;PMS5003;17145;49.902;8.680;2023-11-19T02:08:48;12;10;
30342;PMS5003;17145;49.902;8.680;2023-11-19T02:11:16;13;10;
30342;PMS5003;17145;49.902;8.680;2023-11-19T02:13:43;9;9;
30342;PMS5003;17145;49.902;8.680;2023-11-19T02:16:11;10;10;
30342;PMS5003;17145;49.902;8.680;2023-11-19T02:18:38;9;9;
30342;PMS5003;17145;49.902;8.680;2023-11-19T02:21:06;12;12;
30342;PMS5003;17145;49.902;8.680;2023-11-19T02:23:33;10;8;
30342;PMS5003;17145;49.902;8.680;2023-11-19T02:26:02;9;9;
30342;PMS5003;17145;49.902;8.680;2023-11-19T02:28:36;13;12;
30342;PMS5003;17145;49.902;8.680;2023-11-19T02:31:03;10;9;
30342;PMS5003;17145;49.902;8.680;2023-11-19T02:33:31;10;10;
30342;PMS5003;17145;49.902;8.680;2023-11-19T02:35:58;7;7;
30342;PMS5003;17145;49.902;8.680;2023-11-19T02:38:26;13;10;
30342;PMS5003;17145;49.902;8.680;2023-11-19T02:40:54;9;9;
30342;PMS5003;17145;49.902;8.680;2023-11-19T02:43:21;13;10;
30342;PMS5003;17145;49.902;8.680;2023-11-19T02:45:49;8;8;
30342;PMS5003;17145;49.902;8.680;2023-11-19T02:48:16;12;10;
30342;PMS5003;17145;49.902;8.680;2023-11-19T02:50:44;10;9;
30342;PMS5003;17145;49.902;8.680;2023-11-19T02:53:11;9;7;
30342;PMS5003;17145;49.902;8.680;2023-11-19T02:55:39;12;10;
30342;PMS5003;17145;49.902;8.680;2023-11-19T02:58:06;10;10;
30342;PMS5003;17145;49.902;8.680;2023-11-19T03:00:34;9;8;
30342;PMS5003;17145;49.902;8.680;2023-11-19T03:03:01;10;10;
30342;PMS5003;17145;49.902;8.680;2023-11-19T03:05:29;10;9;
30342;PMS5003;17145;49.902;8.680;2023-11-19T03:07:56;9;8;
30342;PMS5003;17145;49.902;8.680;2023-11-19T03:10:23;8;8;
30342;PMS5003;17145;49.902;8.680;2023-11-19T03:12:51;12;12;
30342;PMS5003;17145;49.902;8.680;2023-11-19T03:15:18;10;10;
30342;PMS5003;17145;49.902;8.680;2023-11-19T03:17:46;10;9;
30342;PMS5003;17145;49.902;8.680;2023-11-19T03:20:13;7;7;
30342;PMS5003;17145;49.902;8.680;2023-11-19T03:22:41;8;6;
30342;PMS5003;17145;49.902;8.680;2023-11-19T03:25:09;21;8;
30342;PMS5003;17145;49.902;8.680;2023-11-19T03:27:37;8;8;
30342;PMS5003;17145;49.902;8.680;2023-11-19T03:30:05;8;7;
30342;PMS5003;17145;49.902;8.680;2023-11-19T03:32:33;7;7;
30342;PMS5003;17145;49.902;8.680;2023-11-19T03:35:01;9;8;
30342;PMS5003;17145;49.902;8.680;2023-11-19T03:37:29;7;7;
30342;PMS5003;17145;49.902;8.680;2023-11-19T03:39:56;7;7;
30342;PMS5003;17145;49.902;8.680;2023-11-19T03:42:24;8;8;
30342;PMS5003;17145;49.902;8.680;2023-11-19T03:44:51;7;7;
30342;PMS5003;17145;49.902;8.680;2023-11-19T03:47:19;7;7;
30342;PMS5003;17145;49.902;8.680;2023-11-19T03:49:47;7;6;
30342;PMS5003;17145;49.902;8.680;2023-11-19T03:52:15;9;8;
30342;PMS5003;17145;49.902;8.680;2023-11-19T03:54:43;9;9;
30342;PMS5003;17145;49.902;8.680;2023-11-19T03:57:11;9;8;
30342;PMS5003;17145;49.902;8.680;2023-11-19T03:59:39;8;7;
30342;PMS5003;17145;49.902;8.680;2023-11-19T04:02:06;21;10;
30342;PMS5003;17145;49.902;8.680;2023-11-19T04:04:34;9;8;
30342;PMS5003;17145;49.902;8.680;2023-11-19T04:07:01;9;9;
30342;PMS5003;17145;49.902;8.680;2023-11-19T04:09:29;7;7;
30342;PMS5003;17145;49.902;8.680;2023-11-19T04:11:56;9;8;
30342;PMS5003;17145;49.902;8.680;2023-11-19T04:14:24;8;8;
30342;PMS5003;17145;49.902;8.680;2023-11-19T04:16:51;8;8;
30342;PMS5003;17145;49.902;8.680;2023-11-19T04:19:19;7;7;
30342;PMS5003;17145;49.902;8.680;2023-11-19T04:21:46;11;8;
30342;PMS5003;17145;49.902;8.680;2023-11-19T04:24:14;7;7;
30342;PMS5003;17145;49.902;8.680;2023-11-19T04:26:41;11;9;
30342;PMS5003;17145;49.902;8.680;2023-11-19T04:29:09;7;7;
30342;PMS5003;17145;49.902;8.680;2023-11-19T04:31:36;8;7;
30342;PMS5003;17145;49.902;8.680;2023-11-19T04:34:03;6;6;
30342;PMS5003;17145;49.902;8.680;2023-11-19T04:36:31;7;7;
30342;PMS5003;17145;49.902;8.680;2023-11-19T04:38:59;8;7;
30342;PMS5003;17145;49.902;8.680;2023-11-19T04:41:26;7;7;
30342;PMS5003;17145;49.902;8.680;2023-11-19T04:43:54;8;6;
30342;PMS5003;17145;49.902;8.680;2023-11-19T04:46:21;4;4;
30342;PMS5003;17145;49.902;8.680;2023-11-19T04:48:49;6;6;
30342;PMS5003;17145;49.902;8.680;2023-11-19T04:51:16;4;4;
30342;PMS5003;17145;49.902;8.680;2023-11-19T04:53:44;7;7;
30342;PMS5003;17145;49.902;8.680;2023-11-19T04:56:11;7;7;
30342;PMS5003;17145;49.902;8.680;2023-11-19T04:58:39;6;6;
30342;PMS5003;17145;49.902;8.680;2023-11-19T05:01:06;4;4;
30342;PMS5003;17145;49.902;8.680;2023-11-19T05:03:40;3;3;
30342;PMS5003;17145;49.902;8.680;2023-11-19T05:06:08;3;3;
30342;PMS5003;17145;49.902;8.680;2023-11-19T05:08:35;4;4;
30342;PMS5003;17145;49.902;8.680;2023-11-19T05:11:03;6;6;
30342;PMS5003;17145;49.902;8.680;2023-11-19T05:13:31;3;3;
30342;PMS5003;17145;49.902;8.680;2023-11-19T05:15:58;7;6;
30342;PMS5003;17145;49.902;8.680;2023-11-19T05:18:26;4;4;
30342;PMS5003;17145;49.902;8.680;2023-11-19T05:20:53;8;7;
30342;PMS5003;17145;49.902;8.680;2023-11-19T05:23:20;6;4;
30342;PMS5003;17145;49.902;8.680;2023-11-19T05:25:48;7;7;
30342;PMS5003;17145;49.902;8.680;2023-11-19T05:28:15;7;7;
30342;PMS5003;17145;49.902;8.680;2023-11-19T05:30:44;6;6;
30342;PMS5003;17145;49.902;8.680;2023-11-19T05:33:11;7;6;
30342;PMS5003;17145;49.902;8.680;2023-11-19T05:35:38;6;6;
30342;PMS5003;17145;49.902;8.680;2023-11-19T05:38:05;6;4;
30342;PMS5003;17145;49.902;8.680;2023-11-19T05:40:33;6;6;
30342;PMS5003;17145;49.902;8.680;2023-11-19T05:43:00;4;4;
30342;PMS5003;17145;49.902;8.680;2023-11-19T05:45:28;7;7;
30342;PMS5003;17145;49.902;8.680;2023-11-19T05:47:55;7;6;
30342;PMS5003;17145;49.902;8.680;2023-11-19T05:50:23;7;7;
30342;PMS5003;17145;49.902;8.680;2023-11-19T05:52:50;8;6;
30342;PMS5003;17145;49.902;8.680;2023-11-19T05:55:17;6;4;
30342;PMS5003;17145;49.902;8.680;2023-11-19T05:57:45;6;6;
30342;PMS5003;17145;49.902;8.680;2023-11-19T06:00:13;6;4;
30342;PMS5003;17145;49.902;8.680;2023-11-19T06:02:40;4;4;
30342;PMS5003;17145;49.902;8.680;2023-11-19T06:05:08;4;4;
30342;PMS5003;17145;49.902;8.680;2023-11-19T06:07:35;3;3;
30342;PMS5003;17145;49.902;8.680;2023-11-19T06:10:03;4;4;
30342;PMS5003;17145;49.902;8.680;2023-11-19T06:12:30;3;3;
30342;PMS5003;17145;49.902;8.680;2023-11-19T06:14:58;3;3;
30342;PMS5003;17145;49.902;8.680;2023-11-19T06:17:25;2;2;
30342;PMS5003;17145;49.902;8.680;2023-11-19T06:19:52;3;3;
30342;PMS5003;17145;49.902;8.680;2023-11-19T06:22:20;2;2;
30342;PMS5003;17145;49.902;8.680;2023-11-19T06:24:47;2;2;
30342;PMS5003;17145;49.902;8.680;2023-11-19T06:27:15;5;2;
30342;PMS5003;17145;49.902;8.680;2023-11-19T06:29:42;2;2;
30342;PMS5003;17145;49.902;8.680;2023-11-19T06:32:09;2;2;
30342;PMS5003;17145;49.902;8.680;2023-11-19T06:34:37;2;2;
30342;PMS5003;17145;49.902;8.680;2023-11-19T06:37:04;5;2;
30342;PMS5003;17145;49.902;8.680;2023-11-19T06:39:32;5;3;
30342;PMS5003;17145;49.902;8.680;2023-11-19T06:41:59;3;3;
30342;PMS5003;17145;49.902;8.680;2023-11-19T06:44:26;3;3;
30342;PMS5003;17145;49.902;8.680;2023-11-19T06:46:54;2;2;
30342;PMS5003;17145;49.902;8.680;2023-11-19T06:49:21;3;3;
30342;PMS5003;17145;49.902;8.680;2023-11-19T06:51:49;6;4;
30342;PMS5003;17145;49.902;8.680;2023-11-19T06:54:16;3;3;
30342;PMS5003;17145;49.902;8.680;2023-11-19T06:56:44;7;6;
30342;PMS5003;17145;49.902;8.680;2023-11-19T06:59:11;6;6;
30342;PMS5003;17145;49.902;8.680;2023-11-19T07:01:38;6;6;
30342;PMS5003;17145;49.902;8.680;2023-11-19T07:04:06;6;6;
30342;PMS5003;17145;49.902;8.680;2023-11-19T07:06:33;6;6;
30342;PMS5003;17145;49.902;8.680;2023-11-19T07:09:01;7;6;
30342;PMS5003;17145;49.902;8.680;2023-11-19T07:11:29;6;6;
30342;PMS5003;17145;49.902;8.680;2023-11-19T07:13:56;8;8;
30342;PMS5003;17145;49.902;8.680;2023-11-19T07:16:24;7;6;
30342;PMS5003;17145;49.902;8.680;2023-11-19T07:18:51;8;7;
30342;PMS5003;17145;49.902;8.680;2023-11-19T07:21:18;7;6;
30342;PMS5003;17145;49.902;8.680;2023-11-19T07:23:46;6;6;
30342;PMS5003;17145;49.902;8.680;2023-11-19T07:26:13;11;10;
30342;PMS5003;17145;49.902;8.680;2023-11-19T07:28:41;8;8;
30342;PMS5003;17145;49.902;8.680;2023-11-19T07:31:09;8;7;
30342;PMS5003;17145;49.902;8.680;2023-11-19T07:33:36;8;7;
30342;PMS5003;17145;49.902;8.680;2023-11-19T07:36:03;11;8;
30342;PMS5003;17145;49.902;8.680;2023-11-19T07:38:31;11;8;
30342;PMS5003;17145;49.902;8.680;2023-11-19T07:40:58;8;8;
30342;PMS5003;17145;49.902;8.680;2023-11-19T07:43:26;7;7;
30342;PMS5003;17145;49.902;8.680;2023-11-19T07:45:53;8;7;
30342;PMS5003;17145;49.902;8.680;2023-11-19T07:48:21;8;7;
30342;PMS5003;17145;49.902;8.680;2023-11-19T07:50:48;8;8;
30342;PMS5003;17145;49.902;8.680;2023-11-19T07:53:16;7;7;
30342;PMS5003;17145;49.902;8.680;2023-11-19T07:55:43;10;8;
30342;PMS5003;17145;49.902;8.680;2023-11-19T07:58:11;10;8;
30342;PMS5003;17145;49.902;8.680;2023-11-19T08:00:38;8;7;
30342;PMS5003;17145;49.902;8.680;2023-11-19T08:03:05;8;8;
30342;PMS5003;17145;49.902;8.680;2023-11-19T08:05:33;7;7;
30342;PMS5003;17145;49.902;8.680;2023-11-19T08:10:38;7;7;
30342;PMS5003;17145;49.902;8.680;2023-11-19T08:13:07;6;6;
30342;PMS5003;17145;49.902;8.680;2023-11-19T08:15:34;8;8;
30342;PMS5003;17145;49.902;8.680;2023-11-19T08:18:02;7;7;
30342;PMS5003;17145;49.902;8.680;2023-11-19T08:20:29;7;7;
30342;PMS5003;17145;49.902;8.680;2023-11-19T08:22:57;8;8;
30342;PMS5003;17145;49.902;8.680;2023-11-19T08:25:24;8;7;
30342;PMS5003;17145;49.902;8.680;2023-11-19T08:27:52;17;8;
30342;PMS5003;17145;49.902;8.680;2023-11-19T08:30:19;7;7;
30342;PMS5003;17145;49.902;8.680;2023-11-19T08:32:47;8;6;
30342;PMS5003;17145;49.902;8.680;2023-11-19T08:35:14;8;8;
30342;PMS5003;17145;49.902;8.680;2023-11-19T08:37:42;7;7;
30342;PMS5003;17145;49.902;8.680;2023-11-19T08:40:10;7;7;
30342;PMS5003;17145;49.902;8.680;2023-11-19T08:42:37;6;6;
30342;PMS5003;17145;49.902;8.680;2023-11-19T08:45:05;8;7;
30342;PMS5003;17145;49.902;8.680;2023-11-19T08:47:33;6;6;
30342;PMS5003;17145;49.902;8.680;2023-11-19T08:50:01;4;4;
30342;PMS5003;17145;49.902;8.680;2023-11-19T08:52:28;7;7;
30342;PMS5003;17145;49.902;8.680;2023-11-19T08:54:56;6;5;
30342;PMS5003;17145;49.902;8.680;2023-11-19T08:57:23;8;6;
30342;PMS5003;17145;49.902;8.680;2023-11-19T08:59:51;6;6;
30342;PMS5003;17145;49.902;8.680;2023-11-19T09:02:18;5;5;
30342;PMS5003;17145;49.902;8.680;2023-11-19T09:04:46;10;7;
30342;PMS5003;17145;49.902;8.680;2023-11-19T09:07:13;8;7;
30342;PMS5003;17145;49.902;8.680;2023-11-19T09:09:41;8;6;
30342;PMS5003;17145;49.902;8.680;2023-11-19T09:12:08;6;6;
30342;PMS5003;17145;49.902;8.680;2023-11-19T09:14:36;6;6;
30342;PMS5003;17145;49.902;8.680;2023-11-19T09:17:03;7;7;
30342;PMS5003;17145;49.902;8.680;2023-11-19T09:19:32;10;8;
30342;PMS5003;17145;49.902;8.680;2023-11-19T09:21:59;8;8;
30342;PMS5003;17145;49.902;8.680;2023-11-19T09:24:27;8;7;
30342;PMS5003;17145;49.902;8.680;2023-11-19T09:26:54;12;11;
30342;PMS5003;17145;49.902;8.680;2023-11-19T09:29:21;12;11;
30342;PMS5003;17145;49.902;8.680;2023-11-19T09:31:49;12;12;
30342;PMS5003;17145;49.902;8.680;2023-11-19T09:34:17;15;13;
30342;PMS5003;17145;49.902;8.680;2023-11-19T09:36:44;25;15;
30342;PMS5003;17145;49.902;8.680;2023-11-19T09:39:12;15;13;
30342;PMS5003;17145;49.902;8.680;2023-11-19T09:41:40;15;13;
30342;PMS5003;17145;49.902;8.680;2023-11-19T09:44:08;15;12;
30342;PMS5003;17145;49.902;8.680;2023-11-19T09:46:36;16;15;
30342;PMS5003;17145;49.902;8.680;2023-11-19T09:49:04;11;10;
30342;PMS5003;17145;49.902;8.680;2023-11-19T09:51:32;15;12;
30342;PMS5003;17145;49.902;8.680;2023-11-19T09:54:00;13;12;
30342;PMS5003;17145;49.902;8.680;2023-11-19T09:56:27;15;15;
30342;PMS5003;17145;49.902;8.680;2023-11-19T09:58:56;18;16;
30342;PMS5003;17145;49.902;8.680;2023-11-19T10:01:23;14;14;
30342;PMS5003;17145;49.902;8.680;2023-11-19T10:03:51;15;15;
30342;PMS5003;17145;49.902;8.680;2023-11-19T10:06:22;15;15;
30342;PMS5003;17145;49.902;8.680;2023-11-19T10:08:52;16;12;
30342;PMS5003;17145;49.902;8.680;2023-11-19T10:11:19;16;13;
30342;PMS5003;17145;49.902;8.680;2023-11-19T10:13:47;17;16;
30342;PMS5003;17145;49.902;8.680;2023-11-19T10:16:15;15;15;
30342;PMS5003;17145;49.902;8.680;2023-11-19T10:18:44;13;12;
30342;PMS5003;17145;49.902;8.680;2023-11-19T10:21:12;12;12;
30342;PMS5003;17145;49.902;8.680;2023-11-19T10:23:47;13;12;
30342;PMS5003;17145;49.902;8.680;2023-11-19T10:26:15;16;12;
30342;PMS5003;17145;49.902;8.680;2023-11-19T10:28:44;16;13;
30342;PMS5003;17145;49.902;8.680;2023-11-19T10:31:13;20;15;
30342;PMS5003;17145;49.902;8.680;2023-11-19T10:33:40;13;13;
30342;PMS5003;17145;49.902;8.680;2023-11-19T10:36:08;16;15;
30342;PMS5003;17145;49.902;8.680;2023-11-19T10:38:36;16;16;
30342;PMS5003;17145;49.902;8.680;2023-11-19T10:41:03;18;17;
30342;PMS5003;17145;49.902;8.680;2023-11-19T10:43:31;20;15;
30342;PMS5003;17145;49.902;8.680;2023-11-19T10:46:10;17;16;
30342;PMS5003;17145;49.902;8.680;2023-11-19T10:48:39;20;17;
30342;PMS5003;17145;49.902;8.680;2023-11-19T10:51:06;16;16;
30342;PMS5003;17145;49.902;8.680;2023-11-19T10:53:35;18;17;
30342;PMS5003;17145;49.902;8.680;2023-11-19T10:56:06;27;15;
30342;PMS5003;17145;49.902;8.680;2023-11-19T10:58:37;16;16;
30342;PMS5003;17145;49.902;8.680;2023-11-19T11:01:11;17;13;
30342;PMS5003;17145;49.902;8.680;2023-11-19T11:03:43;20;18;
30342;PMS5003;17145;49.902;8.680;2023-11-19T11:06:12;18;16;
30342;PMS5003;17145;49.902;8.680;2023-11-19T11:08:40;15;13;
30342;PMS5003;17145;49.902;8.680;2023-11-19T11:11:09;26;16;
30342;PMS5003;17145;49.902;8.680;2023-11-19T11:13:42;16;15;
30342;PMS5003;17145;49.902;8.680;2023-11-19T11:16:11;16;16;
30342;PMS5003;17145;49.902;8.680;2023-11-19T11:18:41;17;17;
30342;PMS5003;17145;49.902;8.680;2023-11-19T11:21:10;17;15;
30342;PMS5003;17145;49.902;8.680;2023-11-19T11:26:33;17;16;
30342;PMS5003;17145;49.902;8.680;2023-11-19T11:29:14;13;12;
30342;PMS5003;17145;49.902;8.680;2023-11-19T11:31:48;17;15;
30342;PMS5003;17145;49.902;8.680;2023-11-19T11:34:30;16;16;
30342;PMS5003;17145;49.902;8.680;2023-11-19T11:37:10;17;17;
30342;PMS5003;17145;49.902;8.680;2023-11-19T11:39:45;17;16;
30342;PMS5003;17145;49.902;8.680;2023-11-19T11:45:00;17;16;
30342;PMS5003;17145;49.902;8.680;2023-11-19T11:50:11;27;17;
30342;PMS5003;17145;49.902;8.680;2023-11-19T11:55:17;31;20;
30342;PMS5003;17145;49.902;8.680;2023-11-19T11:57:44;17;16;
30342;PMS5003;17145;49.902;8.680;2023-11-19T12:00:12;20;18;
30342;PMS5003;17145;49.902;8.680;2023-11-19T12:02:48;17;15;
30342;PMS5003;17145;49.902;8.680;2023-11-19T12:05:16;20;16;
30342;PMS5003;17145;49.902;8.680;2023-11-19T12:07:45;17;17;
30342;PMS5003;17145;49.902;8.680;2023-11-19T12:10:21;15;12;
30342;PMS5003;17145;49.902;8.680;2023-11-19T12:12:52;17;16;
30342;PMS5003;17145;49.902;8.680;2023-11-19T12:15:19;17;16;
30342;PMS5003;17145;49.902;8.680;2023-11-19T12:17:48;16;15;
30342;PMS5003;17145;49.902;8.680;2023-11-19T12:20:16;18;17;
30342;PMS5003;17145;49.902;8.680;2023-11-19T12:22:45;17;17;
30342;PMS5003;17145;49.902;8.680;2023-11-19T12:25:14;17;15;
30342;PMS5003;17145;49.902;8.680;2023-11-19T12:27:44;21;17;
30342;PMS5003;17145;49.902;8.680;2023-11-19T12:30:16;23;21;
30342;PMS5003;17145;49.902;8.680;2023-11-19T12:32:45;16;15;
30342;PMS5003;17145;49.902;8.680;2023-11-19T12:35:12;16;16;
30342;PMS5003;17145;49.902;8.680;2023-11-19T12:37:40;18;16;
30342;PMS5003;17145;49.902;8.680;2023-11-19T12:40:11;23;18;
30342;PMS5003;17145;49.902;8.680;2023-11-19T12:42:40;22;20;
30342;PMS5003;17145;49.902;8.680;2023-11-19T12:45:07;22;20;
30342;PMS5003;17145;49.902;8.680;2023-11-19T12:47:35;20;17;
30342;PMS5003;17145;49.902;8.680;2023-11-19T12:50:03;16;13;
30342;PMS5003;17145;49.902;8.680;2023-11-19T12:52:31;16;16;
30342;PMS5003;17145;49.902;8.680;2023-11-19T12:54:59;16;16;
30342;PMS5003;17145;49.902;8.680;2023-11-19T13:00:05;17;16;
30342;PMS5003;17145;49.902;8.680;2023-11-19T13:05:21;18;16;
30342;PMS5003;17145;49.902;8.680;2023-11-19T13:07:50;17;16;
30342;PMS5003;17145;49.902;8.680;2023-11-19T13:10:18;17;17;
30342;PMS5003;17145;49.902;8.680;2023-11-19T13:15:23;20;17;
30342;PMS5003;17145;49.902;8.680;2023-11-19T13:17:51;17;17;
30342;PMS5003;17145;49.902;8.680;2023-11-19T13:20:19;16;13;
30342;PMS5003;17145;49.902;8.680;2023-11-19T13:22:56;22;17;
30342;PMS5003;17145;49.902;8.680;2023-11-19T13:25:25;22;18;
30342;PMS5003;17145;49.902;8.680;2023-11-19T13:27:54;20;16;
30342;PMS5003;17145;49.902;8.680;2023-11-19T13:30:22;18;16;
30342;PMS5003;17145;49.902;8.680;2023-11-19T13:32:50;18;16;
30342;PMS5003;17145;49.902;8.680;2023-11-19T13:35:19;25;17;
30342;PMS5003;17145;49.902;8.680;2023-11-19T13:37:46;22;18;
30342;PMS5003;17145;49.902;8.680;2023-11-19T13:40:15;20;17;
30342;PMS5003;17145;49.902;8.680;2023-11-19T13:42:43;20;16;
30342;PMS5003;17145;49.902;8.680;2023-11-19T13:45:11;18;17;
30342;PMS5003;17145;49.902;8.680;2023-11-19T13:47:41;22;20;
30342;PMS5003;17145;49.902;8.680;2023-11-19T13:50:09;17;17;
30342;PMS5003;17145;49.902;8.680;2023-11-19T13:52:38;15;15;
30342;PMS5003;17145;49.902;8.680;2023-11-19T13:55:08;23;21;
30342;PMS5003;17145;49.902;8.680;2023-11-19T13:57:36;18;17;
30342;PMS5003;17145;49.902;8.680;2023-11-19T14:00:05;22;22;
30342;PMS5003;17145;49.902;8.680;2023-11-19T14:02:34;21;21;
30342;PMS5003;17145;49.902;8.680;2023-11-19T14:05:02;21;18;
30342;PMS5003;17145;49.902;8.680;2023-11-19T14:07:29;20;17;
30342;PMS5003;17145;49.902;8.680;2023-11-19T14:09:57;22;17;
30342;PMS5003;17145;49.902;8.680;2023-11-19T14:12:24;18;18;
30342;PMS5003;17145;49.902;8.680;2023-11-19T14:14:52;22;21;
30342;PMS5003;17145;49.902;8.680;2023-11-19T14:17:19;18;17;
30342;PMS5003;17145;49.902;8.680;2023-11-19T14:19:47;35;18;
30342;PMS5003;17145;49.902;8.680;2023-11-19T14:22:14;18;18;
30342;PMS5003;17145;49.902;8.680;2023-11-19T14:24:42;17;16;
30342;PMS5003;17145;49.902;8.680;2023-11-19T14:27:09;18;16;
30342;PMS5003;17145;49.902;8.680;2023-11-19T14:29:37;20;18;
30342;PMS5003;17145;49.902;8.680;2023-11-19T14:32:05;16;16;
30342;PMS5003;17145;49.902;8.680;2023-11-19T14:34:32;20;19;
30342;PMS5003;17145;49.902;8.680;2023-11-19T14:37:00;20;17;
30342;PMS5003;17145;49.902;8.680;2023-11-19T14:39:27;21;18;
30342;PMS5003;17145;49.902;8.680;2023-11-19T14:41:55;16;16;
30342;PMS5003;17145;49.902;8.680;2023-11-19T14:44:22;16;16;
30342;PMS5003;17145;49.902;8.680;2023-11-19T14:46:49;18;16;
30342;PMS5003;17145;49.902;8.680;2023-11-19T14:49:17;18;17;
30342;PMS5003;17145;49.902;8.680;2023-11-19T14:51:44;16;15;
30342;PMS5003;17145;49.902;8.680;2023-11-19T14:54:11;15;15;
30342;PMS5003;17145;49.902;8.680;2023-11-19T14:56:39;24;21;
30342;PMS5003;17145;49.902;8.680;2023-11-19T14:59:07;16;16;
30342;PMS5003;17145;49.902;8.680;2023-11-19T15:01:34;20;17;
30342;PMS5003;17145;49.902;8.680;2023-11-19T15:04:01;18;18;
30342;PMS5003;17145;49.902;8.680;2023-11-19T15:06:29;21;18;
30342;PMS5003;17145;49.902;8.680;2023-11-19T15:08:57;17;17;
30342;PMS5003;17145;49.902;8.680;2023-11-19T15:11:24;26;20;
30342;PMS5003;17145;49.902;8.680;2023-11-19T15:13:52;19;19;
30342;PMS5003;17145;49.902;8.680;2023-11-19T15:16:19;22;18;
30342;PMS5003;17145;49.902;8.680;2023-11-19T15:18:47;17;15;
30342;PMS5003;17145;49.902;8.680;2023-11-19T15:21:14;22;20;
30342;PMS5003;17145;49.902;8.680;2023-11-19T15:23:41;17;16;
30342;PMS5003;17145;49.902;8.680;2023-11-19T15:26:09;19;16;
30342;PMS5003;17145;49.902;8.680;2023-11-19T15:28:36;17;16;
30342;PMS5003;17145;49.902;8.680;2023-11-19T15:31:04;21;21;
30342;PMS5003;17145;49.902;8.680;2023-11-19T15:33:31;18;18;
30342;PMS5003;17145;49.902;8.680;2023-11-19T15:35:59;21;20;
30342;PMS5003;17145;49.902;8.680;2023-11-19T15:38:26;18;17;
30342;PMS5003;17145;49.902;8.680;2023-11-19T15:40:53;21;20;
30342;PMS5003;17145;49.902;8.680;2023-11-19T15:43:21;21;20;
30342;PMS5003;17145;49.902;8.680;2023-11-19T15:45:48;17;17;
30342;PMS5003;17145;49.902;8.680;2023-11-19T15:48:15;18;17;
30342;PMS5003;17145;49.902;8.680;2023-11-19T15:50:43;20;17;
30342;PMS5003;17145;49.902;8.680;2023-11-19T15:53:10;17;16;
30342;PMS5003;17145;49.902;8.680;2023-11-19T15:55:38;21;18;
30342;PMS5003;17145;49.902;8.680;2023-11-19T15:58:05;17;17;
30342;PMS5003;17145;49.902;8.680;2023-11-19T16:00:33;20;18;
30342;PMS5003;17145;49.902;8.680;2023-11-19T16:03:00;21;18;
30342;PMS5003;17145;49.902;8.680;2023-11-19T16:05:28;20;17;
30342;PMS5003;17145;49.902;8.680;2023-11-19T16:07:55;16;16;
30342;PMS5003;17145;49.902;8.680;2023-11-19T16:10:22;17;17;
30342;PMS5003;17145;49.902;8.680;2023-11-19T16:12:50;23;21;
30342;PMS5003;17145;49.902;8.680;2023-11-19T16:15:17;25;22;
30342;PMS5003;17145;49.902;8.680;2023-11-19T16:17:45;23;21;
30342;PMS5003;17145;49.902;8.680;2023-11-19T16:20:12;22;21;
30342;PMS5003;17145;49.902;8.680;2023-11-19T16:22:40;15;15;
30342;PMS5003;17145;49.902;8.680;2023-11-19T16:25:08;29;22;
30342;PMS5003;17145;49.902;8.680;2023-11-19T16:27:36;23;21;
30342;PMS5003;17145;49.902;8.680;2023-11-19T16:30:04;20;20;
30342;PMS5003;17145;49.902;8.680;2023-11-19T16:32:33;23;20;
30342;PMS5003;17145;49.902;8.680;2023-11-19T16:35:06;25;22;
30342;PMS5003;17145;49.902;8.680;2023-11-19T16:37:35;22;20;
30342;PMS5003;17145;49.902;8.680;2023-11-19T16:40:02;25;23;
30342;PMS5003;17145;49.902;8.680;2023-11-19T16:42:30;22;20;
30342;PMS5003;17145;49.902;8.680;2023-11-19T16:44:57;23;23;
30342;PMS5003;17145;49.902;8.680;2023-11-19T16:47:25;20;18;
30342;PMS5003;17145;49.902;8.680;2023-11-19T16:49:53;21;18;
30342;PMS5003;17145;49.902;8.680;2023-11-19T16:52:20;25;21;
30342;PMS5003;17145;49.902;8.680;2023-11-19T16:54:48;34;21;
30342;PMS5003;17145;49.902;8.680;2023-11-19T16:57:15;21;17;
30342;PMS5003;17145;49.902;8.680;2023-11-19T16:59:43;25;21;